Terminal Aerodrome Forecast
Issued by NWS Sterling, VA

Home | Current Version | Previous Version | Text Only | Print | Product List | Glossary On
Versions: 1 2 3 4 5 6 7 8 9 10 11 12 13 14
000
FTUS41 KLWX 050541
TAFMRB
TAF
KMRB 050541Z 0506/0606 VRB03KT P6SM BKN100
     FM051700 29005KT 6SM -SHRA BKN050
     FM060000 VRB03KT P6SM BKN090=

USA.gov is the U.S. government's official web portal to all federal, state and local government web resources and services.